SWR9LK EDDV-LSZH
Flight info
| Callsign | SWR9LK |
|---|---|
| Flight time | 0h 55m |
| Altitude | 31000 |
| Route | NORTA1G NORTA P605 WERRA DCT LAMOP DCT SWALM/N0409F320 DCT OMOGI/N0402F310 T721 LAMGO/N0370F270 T721 RILAX |
| Aircraft | E195/M-SDE3GILORVW/S |
Departure
| Time | 2026-04-30 09:06 |
|---|---|
| Airport | Hannover Airport (EDDV) |
Arrival
| Time | 2026-04-30 10:02 |
|---|---|
| Airport | Zürich Airport (LSZH) |
| Time | Latitude | Longitude | Altitude | Speed | Heading |
|---|---|---|---|---|---|
| 2026-04-30 08:38 | 52.45840 | 9.69392 | 177 ft | 0 kts | 30° |
| 2026-04-30 08:56 | 52.45837 | 9.69389 | 176 ft | 2 kts | 30° |
| 2026-04-30 08:56 | 52.45822 | 9.69373 | 177 ft | 3 kts | 41° |
| 2026-04-30 08:56 | 52.45808 | 9.69351 | 177 ft | 3 kts | 40° |
| 2026-04-30 08:57 | 52.45794 | 9.69335 | 198 ft | 1 kts | 22° |
| 2026-04-30 08:57 | 52.45779 | 9.69325 | 163 ft | 3 kts | 4° |
| 2026-04-30 08:57 | 52.45764 | 9.69328 | 176 ft | 3 kts | 307° |
| 2026-04-30 08:57 | 52.45757 | 9.69354 | 177 ft | 3 kts | 272° |
| 2026-04-30 08:58 | 52.45757 | 9.69384 | 177 ft | 2 kts | 272° |
| 2026-04-30 08:58 | 52.45757 | 9.69388 | 177 ft | 3 kts | 273° |
| 2026-04-30 09:01 | 52.45757 | 9.69375 | 177 ft | 3 kts | 274° |
| 2026-04-30 09:01 | 52.45759 | 9.69325 | 177 ft | 6 kts | 273° |
| 2026-04-30 09:01 | 52.45762 | 9.69240 | 176 ft | 9 kts | 272° |
| 2026-04-30 09:02 | 52.45665 | 9.69145 | 177 ft | 9 kts | 183° |
| 2026-04-30 09:02 | 52.45624 | 9.69083 | 177 ft | 9 kts | 262° |
| 2026-04-30 09:02 | 52.45627 | 9.68973 | 177 ft | 10 kts | 273° |
| 2026-04-30 09:03 | 52.45631 | 9.68846 | 177 ft | 12 kts | 273° |
| 2026-04-30 09:03 | 52.45635 | 9.68703 | 177 ft | 13 kts | 272° |
| 2026-04-30 09:03 | 52.45639 | 9.68543 | 177 ft | 15 kts | 272° |
| 2026-04-30 09:03 | 52.45644 | 9.68368 | 177 ft | 16 kts | 272° |
| 2026-04-30 09:04 | 52.45650 | 9.68178 | 177 ft | 17 kts | 273° |
| 2026-04-30 09:04 | 52.45655 | 9.67994 | 177 ft | 15 kts | 272° |
| 2026-04-30 09:04 | 52.45659 | 9.67837 | 177 ft | 13 kts | 271° |
| 2026-04-30 09:04 | 52.45619 | 9.67720 | 177 ft | 11 kts | 212° |
| 2026-04-30 09:05 | 52.45560 | 9.67699 | 179 ft | 5 kts | 183° |
| 2026-04-30 09:05 | 52.45529 | 9.67698 | 182 ft | 5 kts | 181° |
| 2026-04-30 09:05 | 52.45501 | 9.67714 | 182 ft | 5 kts | 129° |
| 2026-04-30 09:05 | 52.45496 | 9.67792 | 182 ft | 18 kts | 93° |
| 2026-04-30 09:06 | 52.45481 | 9.68351 | 180 ft | 79 kts | 92° |
| 2026-04-30 09:06 | 52.45447 | 9.69558 | 185 ft | 131 kts | 92° |
| 2026-04-30 09:06 | 52.45403 | 9.71214 | 467 ft | 153 kts | 92° |
| 2026-04-30 09:06 | 52.45380 | 9.73049 | 922 ft | 171 kts | 92° |
| 2026-04-30 09:07 | 52.45347 | 9.75066 | 1543 ft | 179 kts | 93° |
| 2026-04-30 09:07 | 52.45309 | 9.77132 | 2153 ft | 183 kts | 94° |
| 2026-04-30 09:07 | 52.45248 | 9.79247 | 2712 ft | 189 kts | 96° |
| 2026-04-30 09:07 | 52.45145 | 9.81466 | 3222 ft | 203 kts | 96° |
| 2026-04-30 09:08 | 52.45036 | 9.83841 | 3875 ft | 208 kts | 95° |
| 2026-04-30 09:08 | 52.44927 | 9.86195 | 4721 ft | 206 kts | 96° |
| 2026-04-30 09:08 | 52.44665 | 9.88473 | 5519 ft | 205 kts | 115° |
| 2026-04-30 09:08 | 52.43693 | 9.90175 | 6201 ft | 211 kts | 145° |
| 2026-04-30 09:09 | 52.42363 | 9.91233 | 6879 ft | 215 kts | 149° |
| 2026-04-30 09:09 | 52.40977 | 9.92240 | 7353 ft | 227 kts | 155° |
| 2026-04-30 09:09 | 52.39299 | 9.92563 | 7511 ft | 260 kts | 180° |
| 2026-04-30 09:09 | 52.37437 | 9.92098 | 7775 ft | 282 kts | 186° |
| 2026-04-30 09:10 | 52.35472 | 9.91470 | 8261 ft | 291 kts | 186° |
| 2026-04-30 09:10 | 52.33478 | 9.90849 | 8908 ft | 293 kts | 185° |
| 2026-04-30 09:10 | 52.31463 | 9.90271 | 9555 ft | 295 kts | 184° |
| 2026-04-30 09:10 | 52.29425 | 9.89704 | 10193 ft | 300 kts | 184° |
| 2026-04-30 09:11 | 52.27357 | 9.89109 | 10725 ft | 309 kts | 184° |
| 2026-04-30 09:11 | 52.25165 | 9.88483 | 10889 ft | 328 kts | 184° |
| 2026-04-30 09:11 | 52.22888 | 9.87869 | 11470 ft | 331 kts | 182° |
| 2026-04-30 09:11 | 52.20602 | 9.87422 | 12141 ft | 331 kts | 180° |
| 2026-04-30 09:12 | 52.18309 | 9.87045 | 12748 ft | 335 kts | 180° |
| 2026-04-30 09:12 | 52.15969 | 9.86650 | 13357 ft | 340 kts | 181° |
| 2026-04-30 09:12 | 52.13604 | 9.86224 | 13969 ft | 344 kts | 182° |
| 2026-04-30 09:12 | 52.11220 | 9.85751 | 14558 ft | 348 kts | 182° |
| 2026-04-30 09:13 | 52.08806 | 9.85254 | 15148 ft | 350 kts | 182° |
| 2026-04-30 09:13 | 52.06374 | 9.84758 | 15665 ft | 355 kts | 182° |
| 2026-04-30 09:13 | 52.03907 | 9.84271 | 16220 ft | 358 kts | 182° |
| 2026-04-30 09:13 | 52.01410 | 9.83795 | 16786 ft | 361 kts | 182° |
| 2026-04-30 09:14 | 51.98903 | 9.83316 | 17330 ft | 365 kts | 182° |
| 2026-04-30 09:14 | 51.96368 | 9.82826 | 17854 ft | 369 kts | 182° |
| 2026-04-30 09:14 | 51.93809 | 9.82328 | 18418 ft | 372 kts | 182° |
| 2026-04-30 09:14 | 51.91219 | 9.81829 | 18957 ft | 376 kts | 182° |
| 2026-04-30 09:15 | 51.88616 | 9.81330 | 19477 ft | 379 kts | 182° |
| 2026-04-30 09:15 | 51.86018 | 9.80831 | 20009 ft | 382 kts | 182° |
| 2026-04-30 09:15 | 51.83338 | 9.80314 | 20634 ft | 385 kts | 182° |
| 2026-04-30 09:15 | 51.80702 | 9.79813 | 21308 ft | 388 kts | 182° |
| 2026-04-30 09:16 | 51.77967 | 9.79288 | 21921 ft | 393 kts | 182° |
| 2026-04-30 09:16 | 51.75279 | 9.78777 | 22512 ft | 396 kts | 183° |
| 2026-04-30 09:16 | 51.72529 | 9.78252 | 23083 ft | 400 kts | 183° |
| 2026-04-30 09:16 | 51.69752 | 9.77722 | 23645 ft | 404 kts | 183° |
| 2026-04-30 09:17 | 51.66945 | 9.77190 | 24212 ft | 407 kts | 183° |
| 2026-04-30 09:17 | 51.64120 | 9.76653 | 24717 ft | 410 kts | 183° |
| 2026-04-30 09:17 | 51.61272 | 9.76115 | 25229 ft | 414 kts | 183° |
| 2026-04-30 09:17 | 51.58418 | 9.75573 | 25733 ft | 417 kts | 183° |
| 2026-04-30 09:18 | 51.55521 | 9.75026 | 26221 ft | 420 kts | 183° |
| 2026-04-30 09:18 | 51.52611 | 9.74481 | 26685 ft | 424 kts | 183° |
| 2026-04-30 09:18 | 51.49666 | 9.73930 | 27134 ft | 427 kts | 183° |
| 2026-04-30 09:18 | 51.46710 | 9.73209 | 27561 ft | 433 kts | 191° |
| 2026-04-30 09:19 | 51.43801 | 9.71829 | 28007 ft | 437 kts | 195° |
| 2026-04-30 09:19 | 51.40917 | 9.70226 | 28418 ft | 441 kts | 197° |
| 2026-04-30 09:19 | 51.38023 | 9.68502 | 28823 ft | 445 kts | 198° |
| 2026-04-30 09:19 | 51.35114 | 9.66793 | 29227 ft | 448 kts | 197° |
| 2026-04-30 09:20 | 51.32170 | 9.65139 | 29756 ft | 447 kts | 196° |
| 2026-04-30 09:20 | 51.30211 | 9.64072 | 30156 ft | 445 kts | 196° |
| 2026-04-30 09:20 | 51.26278 | 9.61949 | 30756 ft | 446 kts | 196° |
| 2026-04-30 09:20 | 51.23349 | 9.60342 | 31186 ft | 445 kts | 196° |
| 2026-04-30 09:21 | 51.21413 | 9.59275 | 31476 ft | 443 kts | 196° |
| 2026-04-30 09:21 | 51.18508 | 9.57678 | 31602 ft | 441 kts | 196° |
| 2026-04-30 09:21 | 51.12732 | 9.54500 | 31500 ft | 439 kts | 196° |
| 2026-04-30 09:22 | 51.06976 | 9.51348 | 31478 ft | 437 kts | 196° |
| 2026-04-30 09:22 | 51.01235 | 9.48209 | 31471 ft | 438 kts | 196° |
| 2026-04-30 09:23 | 50.95703 | 9.44206 | 31476 ft | 439 kts | 208° |
| 2026-04-30 09:23 | 50.90530 | 9.39051 | 31456 ft | 439 kts | 211° |
| 2026-04-30 09:24 | 50.85382 | 9.33872 | 31475 ft | 439 kts | 210° |
| 2026-04-30 09:24 | 50.80193 | 9.28884 | 31467 ft | 439 kts | 209° |
| 2026-04-30 09:25 | 50.74990 | 9.23851 | 31453 ft | 439 kts | 210° |
| 2026-04-30 09:25 | 50.69463 | 9.20033 | 31465 ft | 431 kts | 187° |
| 2026-04-30 09:26 | 50.63541 | 9.18757 | 31431 ft | 428 kts | 181° |
| 2026-04-30 09:26 | 50.57602 | 9.17751 | 31439 ft | 430 kts | 183° |
| 2026-04-30 09:27 | 50.51679 | 9.16434 | 31442 ft | 430 kts | 184° |
| 2026-04-30 09:27 | 50.45745 | 9.15137 | 31439 ft | 430 kts | 183° |
| 2026-04-30 09:28 | 50.39818 | 9.13918 | 31434 ft | 430 kts | 184° |
| 2026-04-30 09:28 | 50.33891 | 9.12671 | 31439 ft | 430 kts | 184° |
| 2026-04-30 09:29 | 50.27990 | 9.11429 | 31446 ft | 430 kts | 183° |
| 2026-04-30 09:29 | 50.22061 | 9.10192 | 31431 ft | 429 kts | 183° |
| 2026-04-30 09:30 | 50.16131 | 9.08954 | 31435 ft | 430 kts | 183° |
| 2026-04-30 09:30 | 50.10197 | 9.07719 | 31429 ft | 430 kts | 183° |
| 2026-04-30 09:31 | 50.04262 | 9.06490 | 31425 ft | 429 kts | 183° |
| 2026-04-30 09:31 | 49.98343 | 9.05271 | 31427 ft | 429 kts | 183° |
| 2026-04-30 09:32 | 49.92423 | 9.04046 | 31420 ft | 429 kts | 183° |
| 2026-04-30 09:32 | 49.86501 | 9.02824 | 31413 ft | 429 kts | 183° |
| 2026-04-30 09:33 | 49.80588 | 9.01608 | 31411 ft | 428 kts | 183° |
| 2026-04-30 09:33 | 49.74675 | 9.00397 | 31406 ft | 428 kts | 183° |
| 2026-04-30 09:34 | 49.68769 | 8.99189 | 31401 ft | 428 kts | 183° |
| 2026-04-30 09:34 | 49.62878 | 8.97937 | 31405 ft | 429 kts | 185° |
| 2026-04-30 09:35 | 49.57008 | 8.96310 | 31387 ft | 428 kts | 186° |
| 2026-04-30 09:35 | 49.51126 | 8.94694 | 31388 ft | 428 kts | 185° |
| 2026-04-30 09:36 | 49.45252 | 8.93196 | 31389 ft | 428 kts | 185° |
| 2026-04-30 09:36 | 49.39380 | 8.91662 | 31381 ft | 428 kts | 186° |
| 2026-04-30 09:37 | 49.33512 | 8.90126 | 31369 ft | 427 kts | 185° |
| 2026-04-30 09:37 | 49.27691 | 8.88610 | 31372 ft | 427 kts | 185° |
| 2026-04-30 09:38 | 49.21835 | 8.87093 | 31361 ft | 427 kts | 185° |
| 2026-04-30 09:38 | 49.15979 | 8.85550 | 31336 ft | 427 kts | 186° |
| 2026-04-30 09:39 | 49.10148 | 8.83879 | 31332 ft | 427 kts | 186° |
| 2026-04-30 09:39 | 49.04312 | 8.82249 | 31339 ft | 426 kts | 186° |
| 2026-04-30 09:40 | 48.98469 | 8.80648 | 31326 ft | 427 kts | 186° |
| 2026-04-30 09:40 | 48.92635 | 8.79041 | 31329 ft | 426 kts | 186° |
| 2026-04-30 09:41 | 48.86796 | 8.77429 | 31312 ft | 426 kts | 186° |
| 2026-04-30 09:41 | 48.80963 | 8.75868 | 31309 ft | 426 kts | 186° |
| 2026-04-30 09:42 | 48.75127 | 8.74311 | 31317 ft | 426 kts | 186° |
| 2026-04-30 09:42 | 48.69296 | 8.72749 | 31318 ft | 425 kts | 186° |
| 2026-04-30 09:43 | 48.63470 | 8.71194 | 31312 ft | 425 kts | 186° |
| 2026-04-30 09:43 | 48.57672 | 8.69651 | 31297 ft | 425 kts | 186° |
| 2026-04-30 09:44 | 48.51842 | 8.68107 | 31304 ft | 425 kts | 186° |
| 2026-04-30 09:44 | 48.46015 | 8.66561 | 31231 ft | 427 kts | 186° |
| 2026-04-30 09:45 | 48.43022 | 8.65772 | 30853 ft | 427 kts | 186° |
| 2026-04-30 09:45 | 48.40145 | 8.65008 | 30505 ft | 427 kts | 186° |
| 2026-04-30 09:45 | 48.37174 | 8.64225 | 29671 ft | 433 kts | 187° |
| 2026-04-30 09:45 | 48.34244 | 8.63400 | 28839 ft | 435 kts | 188° |
| 2026-04-30 09:46 | 48.31268 | 8.62483 | 28016 ft | 435 kts | 188° |
| 2026-04-30 09:46 | 48.28300 | 8.61547 | 27215 ft | 434 kts | 188° |
| 2026-04-30 09:46 | 48.25297 | 8.60638 | 26452 ft | 433 kts | 188° |
| 2026-04-30 09:46 | 48.22357 | 8.59759 | 25787 ft | 429 kts | 188° |
| 2026-04-30 09:47 | 48.19437 | 8.58890 | 25141 ft | 426 kts | 188° |
| 2026-04-30 09:47 | 48.16537 | 8.58028 | 24509 ft | 423 kts | 188° |
| 2026-04-30 09:47 | 48.13697 | 8.57176 | 23901 ft | 421 kts | 188° |
| 2026-04-30 09:47 | 48.10834 | 8.56308 | 23201 ft | 418 kts | 188° |
| 2026-04-30 09:48 | 48.07998 | 8.55458 | 22510 ft | 414 kts | 188° |
| 2026-04-30 09:48 | 48.05186 | 8.54611 | 21826 ft | 411 kts | 188° |
| 2026-04-30 09:48 | 48.02393 | 8.53775 | 21174 ft | 407 kts | 188° |
| 2026-04-30 09:48 | 47.99627 | 8.52949 | 20544 ft | 404 kts | 188° |
| 2026-04-30 09:49 | 47.96889 | 8.52131 | 19928 ft | 400 kts | 188° |
| 2026-04-30 09:49 | 47.94156 | 8.51986 | 19290 ft | 389 kts | 167° |
| 2026-04-30 09:49 | 47.91665 | 8.53328 | 18722 ft | 376 kts | 147° |
| 2026-04-30 09:49 | 47.89525 | 8.55486 | 18154 ft | 368 kts | 140° |
| 2026-04-30 09:50 | 47.87473 | 8.57726 | 17565 ft | 364 kts | 141° |
| 2026-04-30 09:50 | 47.85403 | 8.59851 | 16993 ft | 360 kts | 142° |
| 2026-04-30 09:50 | 47.83324 | 8.61905 | 16425 ft | 357 kts | 143° |
| 2026-04-30 09:50 | 47.81258 | 8.63906 | 15877 ft | 353 kts | 143° |
| 2026-04-30 09:51 | 47.79201 | 8.65883 | 15342 ft | 350 kts | 144° |
| 2026-04-30 09:51 | 47.77148 | 8.67794 | 14810 ft | 349 kts | 149° |
| 2026-04-30 09:51 | 47.74833 | 8.68916 | 14274 ft | 353 kts | 167° |
| 2026-04-30 09:51 | 47.72386 | 8.68812 | 13688 ft | 356 kts | 193° |
| 2026-04-30 09:52 | 47.70196 | 8.67162 | 13177 ft | 355 kts | 219° |
| 2026-04-30 09:52 | 47.68701 | 8.64294 | 12690 ft | 352 kts | 245° |
| 2026-04-30 09:52 | 47.68189 | 8.60802 | 12215 ft | 345 kts | 273° |
| 2026-04-30 09:52 | 47.68729 | 8.57421 | 11773 ft | 334 kts | 297° |
| 2026-04-30 09:53 | 47.69762 | 8.54368 | 11395 ft | 328 kts | 299° |
| 2026-04-30 09:53 | 47.70779 | 8.51371 | 11056 ft | 322 kts | 300° |
| 2026-04-30 09:53 | 47.71794 | 8.48457 | 10712 ft | 317 kts | 300° |
| 2026-04-30 09:53 | 47.72812 | 8.45585 | 10378 ft | 311 kts | 300° |
| 2026-04-30 09:54 | 47.73812 | 8.42764 | 10035 ft | 306 kts | 300° |
| 2026-04-30 09:54 | 47.74806 | 8.39978 | 9668 ft | 303 kts | 300° |
| 2026-04-30 09:54 | 47.75776 | 8.37216 | 9306 ft | 300 kts | 298° |
| 2026-04-30 09:54 | 47.76283 | 8.34226 | 8900 ft | 302 kts | 270° |
| 2026-04-30 09:55 | 47.75950 | 8.31170 | 8572 ft | 298 kts | 250° |
| 2026-04-30 09:55 | 47.74851 | 8.28630 | 8203 ft | 291 kts | 218° |
| 2026-04-30 09:55 | 47.73106 | 8.27319 | 7859 ft | 276 kts | 184° |
| 2026-04-30 09:55 | 47.71281 | 8.27535 | 7596 ft | 257 kts | 158° |
| 2026-04-30 09:56 | 47.69587 | 8.28217 | 7419 ft | 246 kts | 159° |
| 2026-04-30 09:56 | 47.67988 | 8.28882 | 7171 ft | 233 kts | 160° |
| 2026-04-30 09:56 | 47.66443 | 8.29513 | 6861 ft | 227 kts | 159° |
| 2026-04-30 09:56 | 47.64988 | 8.30328 | 6489 ft | 220 kts | 145° |
| 2026-04-30 09:57 | 47.63844 | 8.31777 | 6129 ft | 214 kts | 130° |
| 2026-04-30 09:57 | 47.62848 | 8.33383 | 5769 ft | 209 kts | 127° |
| 2026-04-30 09:57 | 47.61835 | 8.34933 | 5427 ft | 210 kts | 133° |
| 2026-04-30 09:57 | 47.60726 | 8.36356 | 5053 ft | 212 kts | 135° |
| 2026-04-30 09:58 | 47.59653 | 8.37834 | 4682 ft | 207 kts | 131° |
| 2026-04-30 09:58 | 47.58627 | 8.39294 | 4338 ft | 202 kts | 134° |
| 2026-04-30 09:58 | 47.57602 | 8.40678 | 4028 ft | 196 kts | 133° |
| 2026-04-30 09:58 | 47.56651 | 8.41994 | 3739 ft | 180 kts | 130° |
| 2026-04-30 09:59 | 47.54890 | 8.44408 | 3296 ft | 162 kts | 130° |
| 2026-04-30 09:59 | 47.53307 | 8.46601 | 2849 ft | 150 kts | 131° |
| 2026-04-30 10:00 | 47.51824 | 8.48610 | 2433 ft | 142 kts | 129° |
| 2026-04-30 10:00 | 47.51093 | 8.49652 | 2217 ft | 152 kts | 129° |
| 2026-04-30 10:01 | 47.49531 | 8.51794 | 1820 ft | 146 kts | 130° |
| 2026-04-30 10:01 | 47.48785 | 8.52824 | 1594 ft | 148 kts | 133° |
| 2026-04-30 10:01 | 47.48027 | 8.53859 | 1409 ft | 145 kts | 134° |
| 2026-04-30 10:02 | 47.46834 | 8.55486 | 1400 ft | 87 kts | 137° |
| 2026-04-30 10:02 | 47.46490 | 8.55903 | 1391 ft | 35 kts | 155° |
| 2026-04-30 10:02 | 47.46347 | 8.55966 | 1399 ft | 17 kts | 168° |
| 2026-04-30 10:02 | 47.46235 | 8.56001 | 1397 ft | 16 kts | 173° |
| 2026-04-30 10:03 | 47.46123 | 8.55994 | 1399 ft | 16 kts | 186° |
| 2026-04-30 10:03 | 47.46013 | 8.55977 | 1401 ft | 16 kts | 186° |
| 2026-04-30 10:03 | 47.45904 | 8.55936 | 1401 ft | 16 kts | 199° |
| 2026-04-30 10:03 | 47.45836 | 8.55900 | 1398 ft | 12 kts | 200° |
| 2026-04-30 10:04 | 47.45753 | 8.55873 | 1400 ft | 12 kts | 186° |
| 2026-04-30 10:04 | 47.45668 | 8.55859 | 1397 ft | 11 kts | 191° |
| 2026-04-30 10:04 | 47.45645 | 8.55759 | 1403 ft | 12 kts | 277° |
| 2026-04-30 10:04 | 47.45654 | 8.55630 | 1395 ft | 13 kts | 275° |
| 2026-04-30 10:05 | 47.45665 | 8.55488 | 1396 ft | 14 kts | 276° |
| 2026-04-30 10:05 | 47.45666 | 8.55354 | 1396 ft | 10 kts | 243° |
| 2026-04-30 10:05 | 47.45609 | 8.55348 | 1401 ft | 9 kts | 156° |
| 2026-04-30 10:05 | 47.45549 | 8.55389 | 1398 ft | 8 kts | 153° |
| 2026-04-30 10:06 | 47.45528 | 8.55447 | 1400 ft | 7 kts | 99° |
| 2026-04-30 10:06 | 47.45531 | 8.55508 | 1401 ft | 4 kts | 56° |
| 2026-04-30 10:06 | 47.45560 | 8.55517 | 1395 ft | 5 kts | 6° |
| 2026-04-30 10:06 | 47.45593 | 8.55522 | 1398 ft | 4 kts | 6° |
| 2026-04-30 10:07 | 47.45603 | 8.55524 | 1401 ft | 0 kts | 6° |